createdAt,value
2022-07-25T00:02:07.313Z,9.45
2022-07-25T00:04:48.832Z,14.82
2022-07-25T00:07:32.623Z,7.95
2022-07-25T00:10:04.430Z,7.22
2022-07-25T00:12:32.894Z,9.00
2022-07-25T00:15:04.142Z,7.13
2022-07-25T00:17:39.815Z,7.93
2022-07-25T00:20:19.561Z,8.98
2022-07-25T00:22:50.887Z,7.20
2022-07-25T00:25:24.337Z,8.38
2022-07-25T00:27:55.302Z,7.22
2022-07-25T00:30:24.695Z,7.72
2022-07-25T00:33:02.463Z,10.07
2022-07-25T00:35:45.136Z,7.25
2022-07-25T00:38:17.490Z,6.70
2022-07-25T00:40:53.556Z,8.40
2022-07-25T00:43:30.012Z,8.48
2022-07-25T00:46:02.263Z,8.80
2022-07-25T00:48:58.006Z,8.75
2022-07-25T00:51:29.067Z,8.07
2022-07-25T00:54:01.530Z,10.93
2022-07-25T00:56:30.316Z,7.88
2022-07-25T00:59:06.823Z,9.10
2022-07-25T01:01:46.249Z,8.52
2022-07-25T01:04:49.597Z,8.77
2022-07-25T01:07:20.926Z,10.13
2022-07-25T01:09:58.082Z,7.40
2022-07-25T01:12:44.448Z,7.47
2022-07-25T01:15:21.388Z,7.22
2022-07-25T01:17:52.193Z,8.18
2022-07-25T01:20:30.180Z,9.40
2022-07-25T01:22:58.997Z,8.45
2022-07-25T01:25:37.062Z,7.70
2022-07-25T01:28:17.266Z,10.55
2022-07-25T01:30:53.334Z,8.00
2022-07-25T01:33:29.625Z,10.35
2022-07-25T01:36:03.298Z,8.10
2022-07-25T01:38:47.605Z,20.13
2022-07-25T01:41:26.658Z,7.57
2022-07-25T01:44:00.757Z,7.45
2022-07-25T01:46:34.358Z,9.00
2022-07-25T01:49:08.485Z,8.63
2022-07-25T01:51:41.164Z,8.65
2022-07-25T01:54:18.294Z,7.63
2022-07-25T01:56:52.983Z,8.27
2022-07-25T01:59:30.647Z,9.93
2022-07-25T02:02:01.283Z,7.78
2022-07-25T02:04:39.837Z,13.40
2022-07-25T02:07:24.179Z,9.07
2022-07-25T02:10:04.531Z,8.55
2022-07-25T02:15:06.981Z,9.20
2022-07-25T02:17:39.961Z,7.47
2022-07-25T02:20:12.824Z,8.23
2022-07-25T02:23:03.184Z,9.10
2022-07-25T02:25:39.200Z,9.73
2022-07-25T02:28:15.252Z,11.55
2022-07-25T02:30:43.955Z,9.30
2022-07-25T02:33:13.022Z,11.82
2022-07-25T02:35:41.877Z,8.93
2022-07-25T02:38:16.502Z,10.93
2022-07-25T02:40:52.484Z,10.00
2022-07-25T02:43:27.627Z,8.57
2022-07-25T02:45:57.026Z,8.68
2022-07-25T02:48:28.994Z,9.20
2022-07-25T02:51:02.721Z,8.88
2022-07-25T02:53:56.701Z,8.45
2022-07-25T02:56:37.197Z,9.10
2022-07-25T02:59:15.250Z,9.82
2022-07-25T03:01:46.263Z,11.75
2022-07-25T03:04:17.770Z,9.15
2022-07-25T03:06:47.404Z,9.85
2022-07-25T03:09:18.009Z,7.95
2022-07-25T03:11:52.790Z,7.88
2022-07-25T03:14:30.288Z,9.40
2022-07-25T03:17:04.285Z,11.30
2022-07-25T03:19:36.251Z,10.00
2022-07-25T03:22:07.074Z,9.27
2022-07-25T03:24:39.823Z,11.68
2022-07-25T03:27:16.713Z,10.93
2022-07-25T03:30:01.146Z,10.23
2022-07-25T03:32:32.157Z,10.95
2022-07-25T03:35:03.961Z,8.43
2022-07-25T03:37:33.052Z,10.75
2022-07-25T03:40:13.208Z,8.27
2022-07-25T03:42:44.920Z,11.73
2022-07-25T03:45:16.999Z,14.13
2022-07-25T03:48:01.483Z,9.00
2022-07-25T03:50:34.300Z,13.38
2022-07-25T03:53:10.431Z,8.80
2022-07-25T03:55:45.678Z,13.70
2022-07-25T03:58:17.082Z,8.63
2022-07-25T04:00:53.978Z,9.60
2022-07-25T04:03:26.322Z,9.38
2022-07-25T04:05:59.280Z,9.60
2022-07-25T04:08:31.732Z,8.30
2022-07-25T04:11:02.066Z,10.20
2022-07-25T04:13:36.003Z,9.40
2022-07-25T04:16:14.619Z,12.77
2022-07-25T04:18:58.162Z,10.50
2022-07-25T04:21:34.021Z,8.85
2022-07-25T04:24:12.528Z,8.82
2022-07-25T04:26:46.922Z,10.35
2022-07-25T04:29:20.140Z,8.93
2022-07-25T04:31:52.151Z,10.95
2022-07-25T04:34:26.481Z,10.52
2022-07-25T04:36:58.318Z,9.30
2022-07-25T04:39:33.418Z,12.88
2022-07-25T04:42:14.375Z,10.65
2022-07-25T04:44:43.510Z,15.00
2022-07-25T04:47:13.298Z,10.55
2022-07-25T04:49:57.741Z,9.82
2022-07-25T04:52:29.907Z,9.30
2022-07-25T04:54:59.107Z,10.93
2022-07-25T04:57:28.705Z,11.30
2022-07-25T05:00:08.133Z,10.65
2022-07-25T05:02:49.983Z,11.30
2022-07-25T05:05:22.387Z,10.48
2022-07-25T05:07:53.678Z,14.52
2022-07-25T05:15:28.108Z,11.93
2022-07-25T05:17:59.975Z,16.00
2022-07-25T05:20:37.170Z,18.27
2022-07-25T05:23:13.410Z,18.02
2022-07-25T05:25:57.610Z,18.38
2022-07-25T05:28:31.918Z,19.13
2022-07-25T05:31:06.260Z,20.38
2022-07-25T05:33:49.135Z,20.40
2022-07-25T05:36:23.584Z,25.98
2022-07-25T05:38:57.521Z,19.33
2022-07-25T05:41:28.868Z,18.15
2022-07-25T05:46:33.120Z,15.15
2022-07-25T05:49:13.827Z,22.60
2022-07-25T05:51:49.855Z,16.50
2022-07-25T05:54:30.345Z,15.95
2022-07-25T05:57:03.504Z,20.48
2022-07-25T05:59:36.391Z,16.02
2022-07-25T06:02:10.719Z,15.77
2022-07-25T06:04:46.508Z,14.77
2022-07-25T06:07:16.945Z,21.63
2022-07-25T06:09:55.290Z,17.08
2022-07-25T06:12:25.278Z,16.30
2022-07-25T06:14:57.687Z,14.10
2022-07-25T06:17:32.530Z,18.17
2022-07-25T06:20:05.311Z,17.52
2022-07-25T06:22:42.193Z,18.42
2022-07-25T06:25:24.441Z,15.07
2022-07-25T06:33:12.715Z,15.25
2022-07-25T06:35:45.664Z,14.23
2022-07-25T06:38:26.409Z,13.32
2022-07-25T06:41:12.021Z,12.43
2022-07-25T06:43:49.953Z,13.65
2022-07-25T06:46:35.839Z,15.27
2022-07-25T06:49:09.682Z,13.15
2022-07-25T06:51:46.886Z,13.45
2022-07-25T06:54:18.592Z,14.70
2022-07-25T06:56:51.000Z,15.95
2022-07-25T06:59:23.190Z,10.43
2022-07-25T07:02:00.127Z,10.07
2022-07-25T07:04:33.025Z,15.80
2022-07-25T07:07:13.127Z,12.90
2022-07-25T07:09:52.013Z,11.93
2022-07-25T07:12:23.142Z,11.25
2022-07-25T07:14:53.397Z,13.82
2022-07-25T07:20:09.257Z,16.45
2022-07-25T07:22:51.683Z,13.57
2022-07-25T07:25:28.643Z,16.70
2022-07-25T07:28:06.170Z,11.25
2022-07-25T07:33:50.067Z,8.93
2022-07-25T07:36:26.810Z,15.27
2022-07-25T07:39:04.095Z,9.35
2022-07-25T07:41:36.555Z,14.73
2022-07-25T07:44:17.223Z,9.27
2022-07-25T07:46:55.283Z,9.90
2022-07-25T07:49:28.768Z,9.73
2022-07-25T07:52:05.771Z,12.65
2022-07-25T07:54:59.296Z,11.18
2022-07-25T07:57:30.104Z,11.13
2022-07-25T08:00:11.488Z,14.32
2022-07-25T08:02:58.847Z,14.13
2022-07-25T08:05:32.805Z,11.98
2022-07-25T08:08:10.125Z,8.40
2022-07-25T08:10:43.401Z,11.85
2022-07-25T08:13:28.164Z,10.32
2022-07-25T08:16:03.317Z,10.27
2022-07-25T08:18:36.596Z,10.52
2022-07-25T08:21:08.827Z,13.60
2022-07-25T08:23:40.033Z,12.48
2022-07-25T08:26:16.705Z,9.02
2022-07-25T08:29:04.929Z,14.93
2022-07-25T08:31:39.086Z,10.38
2022-07-25T08:34:15.630Z,14.35
2022-07-25T08:36:54.874Z,16.05
2022-07-25T08:42:11.222Z,8.13
2022-07-25T08:44:48.600Z,10.20
2022-07-25T08:47:26.534Z,8.30
2022-07-25T08:49:55.078Z,11.23
2022-07-25T08:52:30.746Z,12.00
2022-07-25T08:54:59.636Z,10.60
2022-07-25T08:57:33.477Z,10.27
2022-07-25T09:00:03.489Z,8.73
2022-07-25T09:02:40.662Z,11.10
2022-07-25T09:05:11.123Z,11.95
2022-07-25T09:07:47.826Z,11.18
2022-07-25T09:10:35.080Z,5.68
2022-07-25T09:13:20.846Z,9.00
2022-07-25T09:16:01.058Z,6.68
2022-07-25T09:18:37.537Z,6.63
2022-07-25T09:21:15.961Z,6.25
2022-07-25T09:23:54.158Z,4.80
2022-07-25T09:26:25.611Z,7.35
2022-07-25T09:28:56.671Z,6.63
2022-07-25T09:31:35.076Z,6.38
2022-07-25T09:34:26.422Z,8.65
2022-07-25T09:36:56.978Z,5.03
2022-07-25T09:39:46.444Z,5.85
2022-07-25T09:42:25.230Z,4.53
2022-07-25T09:45:15.300Z,7.75
2022-07-25T09:48:16.073Z,11.40
2022-07-25T09:50:53.231Z,9.63
2022-07-25T09:53:24.158Z,8.90
2022-07-25T09:56:01.049Z,5.68
2022-07-25T09:58:40.849Z,5.60
2022-07-25T10:01:10.854Z,7.80
2022-07-25T10:04:19.189Z,4.90
2022-07-25T10:07:20.244Z,8.32
2022-07-25T10:09:54.228Z,7.75
2022-07-25T10:12:28.171Z,8.13
2022-07-25T10:15:32.176Z,7.10
2022-07-25T10:18:13.434Z,6.38
2022-07-25T10:20:47.025Z,4.97
2022-07-25T10:23:31.942Z,6.40
2022-07-25T10:26:16.021Z,4.75
2022-07-25T10:28:48.720Z,7.15
2022-07-25T10:31:51.622Z,4.45
2022-07-25T10:34:34.733Z,6.80
2022-07-25T10:37:24.529Z,8.98
2022-07-25T10:39:53.260Z,5.75
2022-07-25T10:42:36.802Z,4.18
2022-07-25T10:45:13.214Z,5.40
2022-07-25T10:47:55.185Z,4.93
2022-07-25T10:50:54.534Z,6.30
2022-07-25T10:54:02.453Z,6.40
2022-07-25T10:56:31.496Z,5.47
2022-07-25T10:59:03.023Z,5.47
2022-07-25T11:01:37.470Z,8.75
2022-07-25T11:04:12.205Z,8.00
2022-07-25T11:06:44.596Z,6.07
2022-07-25T11:09:29.744Z,6.80
2022-07-25T11:12:04.491Z,5.30
2022-07-25T11:14:43.442Z,6.78
2022-07-25T11:17:32.671Z,4.85
2022-07-25T11:20:05.767Z,7.78
2022-07-25T11:22:48.523Z,4.93
2022-07-25T11:25:21.832Z,5.85
2022-07-25T11:28:12.654Z,4.75
2022-07-25T11:33:19.851Z,6.13
2022-07-25T11:35:51.303Z,5.90
2022-07-25T11:38:33.728Z,4.95
2022-07-25T11:41:08.182Z,6.80
2022-07-25T11:43:52.573Z,5.07
2022-07-25T11:46:34.333Z,6.07
2022-07-25T11:49:09.466Z,7.28
2022-07-25T11:51:49.807Z,6.85
2022-07-25T11:54:23.865Z,5.07
2022-07-25T11:56:57.706Z,5.35
2022-07-25T11:59:26.921Z,8.75
2022-07-25T12:01:59.482Z,4.80
2022-07-25T12:04:34.185Z,8.95
2022-07-25T12:07:06.761Z,6.50
2022-07-25T12:09:38.273Z,5.10
2022-07-25T12:12:17.776Z,9.77
2022-07-25T12:14:51.786Z,5.53
2022-07-25T12:17:26.100Z,8.65
2022-07-25T12:19:57.405Z,5.78
2022-07-25T12:22:28.259Z,4.80
2022-07-25T12:25:04.418Z,7.22
2022-07-25T12:27:32.943Z,8.10
2022-07-25T12:30:07.613Z,5.15
2022-07-25T12:32:44.579Z,4.18
2022-07-25T12:35:21.554Z,4.22
2022-07-25T12:37:59.215Z,6.55
2022-07-25T12:40:31.806Z,6.38
2022-07-25T12:43:09.041Z,4.38
2022-07-25T12:45:40.022Z,6.32
2022-07-25T12:48:17.523Z,10.63
2022-07-25T12:51:00.733Z,5.35
2022-07-25T12:53:37.816Z,4.95
2022-07-25T12:58:56.770Z,8.68
2022-07-25T13:01:30.789Z,4.85
2022-07-25T13:04:03.112Z,7.40
2022-07-25T13:06:38.489Z,8.18
2022-07-25T13:09:10.650Z,5.88
2022-07-25T13:11:49.688Z,15.95
2022-07-25T13:14:19.952Z,11.05
2022-07-25T13:16:54.905Z,4.60
2022-07-25T13:19:25.841Z,14.23
2022-07-25T13:21:59.368Z,8.82
2022-07-25T13:24:31.585Z,5.10
2022-07-25T13:26:59.923Z,9.55
2022-07-25T13:29:32.907Z,5.63
2022-07-25T13:32:12.366Z,10.23
2022-07-25T13:34:50.130Z,4.35
2022-07-25T13:37:20.922Z,4.10
2022-07-25T13:40:01.132Z,6.40
2022-07-25T13:42:31.381Z,5.65
2022-07-25T13:45:02.518Z,8.20
2022-07-25T13:50:23.244Z,5.38
2022-07-25T13:52:57.195Z,8.88
2022-07-25T13:55:27.635Z,5.78
2022-07-25T13:57:59.148Z,7.90
2022-07-25T14:00:31.162Z,4.60
2022-07-25T14:03:08.689Z,5.18
2022-07-25T14:05:46.120Z,8.00
2022-07-25T14:08:29.312Z,6.20
2022-07-25T14:11:03.138Z,8.50
2022-07-25T14:13:37.417Z,4.85
2022-07-25T14:16:18.366Z,6.35
2022-07-25T14:18:52.782Z,8.43
2022-07-25T14:21:30.480Z,9.63
2022-07-25T14:24:03.720Z,13.60
2022-07-25T14:26:44.401Z,4.82
2022-07-25T14:29:25.938Z,6.13
2022-07-25T14:32:00.462Z,7.50
2022-07-25T14:34:35.448Z,6.32
2022-07-25T14:37:04.312Z,5.53
2022-07-25T14:39:36.772Z,8.43
2022-07-25T14:42:07.484Z,8.43
2022-07-25T14:44:47.179Z,5.97
2022-07-25T14:47:29.313Z,5.57
2022-07-25T14:50:01.022Z,7.95
2022-07-25T14:52:36.960Z,6.22
2022-07-25T14:55:16.905Z,10.32
2022-07-25T14:57:46.092Z,3.75
2022-07-25T15:00:29.429Z,5.82
2022-07-25T15:03:08.081Z,4.07
2022-07-25T15:05:46.391Z,5.50
2022-07-25T15:08:24.357Z,4.50
2022-07-25T15:10:55.309Z,3.97
2022-07-25T15:13:35.869Z,4.47
2022-07-25T15:16:15.587Z,5.38
2022-07-25T15:19:14.726Z,5.40
2022-07-25T15:21:38.609Z,4.07
2022-07-25T15:24:11.238Z,6.32
2022-07-25T15:26:44.145Z,6.25
2022-07-25T15:29:27.723Z,3.97
2022-07-25T15:31:56.878Z,3.30
2022-07-25T15:34:31.660Z,4.93
2022-07-25T15:37:00.357Z,4.22
2022-07-25T15:39:37.457Z,3.35
2022-07-25T15:42:11.245Z,3.55
2022-07-25T15:44:42.676Z,5.15
2022-07-25T15:47:18.665Z,5.40
2022-07-25T15:49:50.888Z,5.53
2022-07-25T15:52:24.894Z,4.97
2022-07-25T15:55:05.306Z,8.57
2022-07-25T15:57:36.928Z,5.43
2022-07-25T16:00:17.261Z,5.40
2022-07-25T16:02:49.749Z,5.82
2022-07-25T16:05:23.401Z,4.68
2022-07-25T16:08:10.178Z,5.93
2022-07-25T16:10:46.512Z,4.30
2022-07-25T16:13:18.581Z,7.53
2022-07-25T16:15:54.744Z,10.05
2022-07-25T16:18:28.221Z,4.18
2022-07-25T16:21:01.718Z,6.60
2022-07-25T16:23:45.296Z,5.85
2022-07-25T16:26:20.637Z,4.53
2022-07-25T16:29:06.104Z,3.72
2022-07-25T16:31:35.861Z,4.03
2022-07-25T16:34:14.506Z,7.38
2022-07-25T16:36:49.016Z,7.35
2022-07-25T16:39:31.931Z,4.10
2022-07-25T16:42:07.971Z,4.28
2022-07-25T16:44:50.637Z,9.30
2022-07-25T16:47:26.990Z,15.15
2022-07-25T16:50:10.395Z,6.00
2022-07-25T16:52:46.537Z,8.90
2022-07-25T16:55:22.999Z,5.28
2022-07-25T16:57:58.848Z,6.85
2022-07-25T17:00:36.915Z,10.23
2022-07-25T17:03:06.323Z,5.80
2022-07-25T17:05:43.774Z,10.15
2022-07-25T17:08:17.640Z,5.30
2022-07-25T17:10:46.488Z,9.07
2022-07-25T17:13:20.932Z,7.78
2022-07-25T17:15:51.776Z,5.05
2022-07-25T17:18:24.043Z,4.78
2022-07-25T17:21:04.880Z,7.10
2022-07-25T17:23:38.471Z,6.45
2022-07-25T17:26:09.751Z,6.15
2022-07-25T17:28:40.225Z,6.10
2022-07-25T17:31:14.060Z,9.88
2022-07-25T17:33:51.534Z,7.75
2022-07-25T17:36:30.913Z,7.72
2022-07-25T17:39:00.002Z,9.73
2022-07-25T17:41:33.643Z,6.22
2022-07-25T17:44:11.586Z,4.78
2022-07-25T17:46:47.031Z,4.55
2022-07-25T17:49:20.829Z,9.48
2022-07-25T17:52:03.709Z,8.57
2022-07-25T17:54:35.989Z,7.25
2022-07-25T17:57:06.324Z,5.00
2022-07-25T17:59:40.065Z,4.85
2022-07-25T18:02:10.649Z,9.32
2022-07-25T18:07:24.753Z,6.63
2022-07-25T18:10:00.858Z,9.88
2022-07-25T18:12:42.634Z,7.32
2022-07-25T18:15:18.270Z,7.00
2022-07-25T18:17:59.256Z,5.75
2022-07-25T18:20:32.443Z,9.90
2022-07-25T18:23:11.336Z,5.30
2022-07-25T18:25:41.494Z,4.88
2022-07-25T18:28:20.320Z,5.25
2022-07-25T18:30:53.781Z,6.93
2022-07-25T18:33:27.336Z,6.03
2022-07-25T18:35:55.660Z,6.93
2022-07-25T18:38:29.127Z,10.85
2022-07-25T18:41:26.358Z,8.35
2022-07-25T18:43:58.356Z,5.25
2022-07-25T18:46:33.644Z,11.45
2022-07-25T18:49:07.025Z,8.52
2022-07-25T18:51:38.166Z,8.23
2022-07-25T18:54:23.495Z,7.35
2022-07-25T18:56:59.604Z,9.50
2022-07-25T19:02:22.108Z,9.73
2022-07-25T19:04:56.034Z,12.23
2022-07-25T19:07:33.210Z,11.57
2022-07-25T19:10:13.307Z,11.55
2022-07-25T19:12:43.800Z,13.10
2022-07-25T19:15:18.127Z,9.38
2022-07-25T19:17:56.794Z,16.75
2022-07-25T19:20:28.920Z,18.52
2022-07-25T19:23:02.376Z,21.13
2022-07-25T19:25:47.624Z,14.05
2022-07-25T19:28:18.891Z,16.00
2022-07-25T19:30:49.717Z,6.38
2022-07-25T19:33:21.633Z,11.18
2022-07-25T19:35:50.746Z,6.05
2022-07-25T19:38:37.716Z,12.20
2022-07-25T19:41:18.957Z,6.18
2022-07-25T19:43:52.207Z,11.20
2022-07-25T19:46:32.388Z,11.23
2022-07-25T19:49:10.576Z,17.48
2022-07-25T19:51:41.632Z,7.68
2022-07-25T19:56:43.982Z,18.40
2022-07-25T19:59:15.048Z,14.68
2022-07-25T20:01:50.494Z,7.95
2022-07-25T20:04:26.674Z,7.22
2022-07-25T20:07:05.217Z,7.35
2022-07-25T20:09:36.055Z,10.48
2022-07-25T20:12:04.649Z,5.78
2022-07-25T20:14:44.098Z,8.82
2022-07-25T20:17:16.301Z,6.55
2022-07-25T20:19:48.986Z,12.95
2022-07-25T20:25:01.751Z,6.57
2022-07-25T20:27:39.194Z,9.40
2022-07-25T20:30:22.349Z,8.05
2022-07-25T20:32:54.225Z,9.52
2022-07-25T20:35:22.430Z,8.93
2022-07-25T20:37:54.131Z,12.00
2022-07-25T20:40:27.209Z,8.48
2022-07-25T20:43:00.150Z,9.55
2022-07-25T20:45:31.907Z,11.23
2022-07-25T20:48:08.855Z,7.55
2022-07-25T20:53:22.540Z,7.55
2022-07-25T20:56:01.718Z,10.80
2022-07-25T20:58:39.835Z,8.65
2022-07-25T21:01:28.328Z,10.45
2022-07-25T21:04:07.284Z,15.70
2022-07-25T21:06:42.250Z,8.90
2022-07-25T21:09:19.592Z,7.43
2022-07-25T21:11:47.909Z,8.23
2022-07-25T21:14:25.582Z,7.05
2022-07-25T21:16:56.363Z,8.57
2022-07-25T21:19:33.177Z,6.80
2022-07-25T21:22:17.433Z,7.60
2022-07-25T21:24:58.443Z,6.75
2022-07-25T21:27:29.175Z,8.45
2022-07-25T21:30:00.087Z,6.85
2022-07-25T21:32:31.016Z,10.45
2022-07-25T21:35:02.080Z,6.32
2022-07-25T21:37:38.226Z,7.18
2022-07-25T21:40:10.191Z,5.97
2022-07-25T21:42:43.077Z,7.82
2022-07-25T21:45:24.273Z,8.75
2022-07-25T21:48:02.311Z,7.70
2022-07-25T21:50:44.248Z,6.90
2022-07-25T21:53:29.917Z,9.95
2022-07-25T21:56:04.414Z,9.50
2022-07-25T21:58:38.461Z,7.30
2022-07-25T22:01:11.914Z,7.78
2022-07-25T22:03:49.117Z,8.60
2022-07-25T22:06:23.079Z,11.32
2022-07-25T22:08:59.754Z,8.18
2022-07-25T22:11:42.318Z,8.05
2022-07-25T22:14:15.974Z,6.75
2022-07-25T22:16:49.908Z,6.15
2022-07-25T22:19:22.472Z,11.63
2022-07-25T22:21:55.971Z,8.10
2022-07-25T22:24:29.513Z,6.00
2022-07-25T22:27:00.493Z,9.45
2022-07-25T22:29:39.911Z,6.80
2022-07-25T22:32:11.864Z,6.60
2022-07-25T22:34:47.033Z,8.10
2022-07-25T22:37:15.970Z,25.75
2022-07-25T22:39:49.441Z,35.53
2022-07-25T22:42:20.203Z,31.77
2022-07-25T22:44:53.010Z,6.88
2022-07-25T22:49:56.897Z,7.13
2022-07-25T22:52:31.183Z,5.05
2022-07-25T22:55:02.523Z,4.00
2022-07-25T23:00:23.635Z,3.58
2022-07-25T23:03:01.081Z,2.17
2022-07-25T23:05:40.590Z,3.78
2022-07-25T23:08:27.564Z,2.65
2022-07-25T23:10:57.167Z,2.35
2022-07-25T23:13:34.258Z,8.23
2022-07-25T23:16:14.967Z,3.47
2022-07-25T23:18:47.001Z,3.13
2022-07-25T23:21:25.819Z,4.90
2022-07-25T23:23:59.676Z,2.85
2022-07-25T23:26:31.393Z,2.50
2022-07-25T23:29:02.729Z,2.53
2022-07-25T23:34:07.763Z,2.47
2022-07-25T23:36:52.743Z,2.22
2022-07-25T23:39:29.083Z,5.40
2022-07-25T23:42:19.889Z,2.78
2022-07-25T23:44:54.110Z,2.63
2022-07-25T23:47:39.248Z,3.55
2022-07-25T23:50:13.816Z,2.80
2022-07-25T23:52:41.581Z,2.22
2022-07-25T23:55:15.262Z,2.65
2022-07-25T23:57:46.746Z,2.60
